Time;durP1;ratioP1;P1;durP2;ratioP2;P2;SDS_P1;SDS_P2;PMS_P1;PMS_P2;Temp;Humidity;BMP_temperature;BMP_pressure;BME280_temperature;BME280_humidity;BME280_pressure;Samples;Min_cycle;Max_cycle;Signal;HPM_P1;HPM_P2
2021/06/11 00:02:39;;;;;;;3.30;1.33;;;16.10;99.90;;;;;;7640094;23;20161;-71
2021/06/11 00:05:42;;;;;;;1.83;1.60;;;16.00;99.90;;;;;;7614128;23;20256;-71
2021/06/11 00:08:44;;;;;;;1.50;1.40;;;16.00;99.90;;;;;;7640378;23;20172;-71
2021/06/11 00:11:51;;;;;;;1.67;1.30;;;16.00;99.90;;;;;;7639819;23;20215;-71
2021/06/11 00:15:17;;;;;;;1.47;1.37;;;15.90;99.90;;;;;;7614154;23;20161;-71
2021/06/11 00:18:20;;;;;;;2.20;1.43;;;15.90;99.90;;;;;;7614037;23;20185;-71
2021/06/11 00:21:23;;;;;;;1.60;1.50;;;15.80;99.90;;;;;;7640414;23;20164;-71
2021/06/11 00:24:26;;;;;;;1.57;1.47;;;15.80;99.90;;;;;;7640288;23;20163;-71
2021/06/11 00:27:28;;;;;;;1.87;1.77;;;15.70;99.90;;;;;;7639467;23;20168;-71
2021/06/11 00:30:32;;;;;;;1.70;1.60;;;15.60;99.90;;;;;;7613819;23;20169;-71
2021/06/11 00:33:35;;;;;;;1.90;1.80;;;15.50;99.90;;;;;;7613411;23;20180;-71
2021/06/11 00:36:38;;;;;;;1.60;1.33;;;15.50;99.90;;;;;;7613994;23;20208;-71
2021/06/11 00:39:41;;;;;;;1.70;1.60;;;15.50;99.90;;;;;;7588961;23;20236;-71
2021/06/11 00:42:44;;;;;;;3.00;1.73;;;15.40;99.90;;;;;;7640403;23;20176;-71
2021/06/11 00:45:46;;;;;;;1.87;1.77;;;15.40;99.90;;;;;;7639904;23;20168;-71
2021/06/11 00:48:49;;;;;;;2.77;1.50;;;15.30;99.90;;;;;;7639645;23;20180;-71
2021/06/11 00:51:51;;;;;;;1.80;1.70;;;15.30;99.90;;;;;;7640031;23;20496;-71
2021/06/11 00:54:53;;;;;;;1.50;1.43;;;15.30;99.90;;;;;;7613060;23;20552;-72
2021/06/11 00:57:57;;;;;;;2.03;1.63;;;15.30;99.90;;;;;;7639042;23;20200;-71
2021/06/11 01:00:59;;;;;;;1.33;1.20;;;15.30;99.90;;;;;;7639761;23;20501;-71
2021/06/11 01:04:02;;;;;;;2.93;1.60;;;15.20;99.90;;;;;;7612959;23;20203;-71
2021/06/11 01:07:06;;;;;;;2.20;1.40;;;15.10;99.90;;;;;;7613627;23;20165;-71
2021/06/11 01:10:09;;;;;;;1.90;1.70;;;15.10;99.90;;;;;;7639065;23;20172;-71
2021/06/11 01:13:14;;;;;;;2.20;1.60;;;15.00;99.90;;;;;;7613653;23;20176;-71
2021/06/11 01:16:17;;;;;;;2.80;1.50;;;14.90;99.90;;;;;;7639105;23;20157;-71
2021/06/11 01:19:25;;;;;;;1.80;1.63;;;14.90;99.90;;;;;;7613421;23;20184;-71
2021/06/11 01:22:56;;;;;;;1.83;1.60;;;14.80;99.90;;;;;;7639419;23;20149;-71
2021/06/11 01:26:15;;;;;;;1.60;1.50;;;14.80;99.90;;;;;;7588769;23;20185;-71
2021/06/11 01:29:21;;;;;;;2.00;1.90;;;14.80;99.90;;;;;;7639311;23;20228;-71
2021/06/11 01:32:24;;;;;;;2.03;1.73;;;14.70;99.90;;;;;;7612968;23;20149;-71
2021/06/11 01:35:33;;;;;;;2.37;1.73;;;14.70;99.90;;;;;;7613254;23;20173;-71
2021/06/11 01:38:43;;;;;;;1.80;1.70;;;14.60;99.90;;;;;;7639114;23;20281;-71
2021/06/11 01:41:46;;;;;;;2.00;1.90;;;14.60;99.90;;;;;;7613532;23;20232;-71
2021/06/11 01:44:51;;;;;;;1.80;1.70;;;14.60;99.90;;;;;;7613123;23;20799;-71
2021/06/11 01:47:55;;;;;;;2.50;1.80;;;14.60;99.90;;;;;;7613368;23;20169;-71
2021/06/11 01:50:58;;;;;;;1.73;1.63;;;14.60;99.90;;;;;;7613297;23;20180;-71
2021/06/11 01:54:02;;;;;;;2.13;1.90;;;14.60;99.90;;;;;;7639056;23;20169;-71
2021/06/11 01:57:05;;;;;;;2.53;1.87;;;14.60;99.90;;;;;;7638988;23;20179;-71
2021/06/11 02:00:09;;;;;;;1.47;1.37;;;14.60;99.90;;;;;;7639666;23;20263;-71
2021/06/11 02:03:16;;;;;;;2.20;1.40;;;14.60;99.90;;;;;;7638879;23;20594;-71
2021/06/11 02:06:21;;;;;;;2.07;1.50;;;14.60;99.90;;;;;;7613143;23;20170;-71
2021/06/11 02:09:24;;;;;;;2.03;1.80;;;14.70;99.90;;;;;;7590843;23;20180;-71
2021/06/11 02:12:26;;;;;;;2.17;1.97;;;14.80;99.90;;;;;;7641203;23;20666;-71
2021/06/11 02:15:30;;;;;;;2.00;1.60;;;14.80;99.90;;;;;;7615208;23;20180;-71
2021/06/11 02:18:34;;;;;;;2.57;1.70;;;14.80;99.90;;;;;;7640782;23;20506;-71
2021/06/11 02:21:38;;;;;;;1.93;1.80;;;14.80;99.90;;;;;;7641776;23;20169;-71
2021/06/11 02:24:40;;;;;;;2.27;2.07;;;14.80;99.90;;;;;;7640770;23;20169;-71
2021/06/11 02:27:44;;;;;;;2.27;2.07;;;14.90;99.90;;;;;;7615287;23;20169;-71
2021/06/11 02:30:47;;;;;;;2.20;2.00;;;14.90;99.90;;;;;;7640952;23;20172;-71
2021/06/11 02:33:50;;;;;;;3.10;2.17;;;15.00;99.90;;;;;;7615279;23;20173;-71
2021/06/11 02:36:52;;;;;;;1.73;1.63;;;15.10;99.90;;;;;;7641434;23;20185;-71
2021/06/11 02:39:55;;;;;;;2.57;1.80;;;15.10;99.90;;;;;;7614458;23;20332;-71
2021/06/11 02:43:12;;;;;;;2.07;1.60;;;15.10;99.90;;;;;;7641244;23;20499;-71
2021/06/11 02:46:30;;;;;;;4.60;2.10;;;15.10;99.90;;;;;;7640771;23;20157;-71
2021/06/11 02:49:37;;;;;;;2.00;1.90;;;15.10;99.90;;;;;;7641512;23;20158;-71
2021/06/11 02:52:52;;;;;;;2.87;2.37;;;15.10;99.90;;;;;;7615271;23;20244;-71
2021/06/11 02:56:01;;;;;;;3.80;2.20;;;15.10;99.90;;;;;;7615417;23;20166;-71
2021/06/11 02:59:10;;;;;;;2.70;2.50;;;15.20;99.90;;;;;;7641100;23;20200;-71
2021/06/11 03:02:20;;;;;;;2.50;2.27;;;15.30;99.90;;;;;;7614449;23;20173;-71
2021/06/11 03:05:24;;;;;;;2.63;2.40;;;15.40;99.90;;;;;;7615052;23;20239;-71
2021/06/11 03:08:29;;;;;;;4.10;2.97;;;15.40;99.90;;;;;;7640740;23;20171;-71
2021/06/11 03:11:38;;;;;;;3.60;2.87;;;15.50;99.90;;;;;;7641515;23;20164;-71
2021/06/11 03:14:41;;;;;;;3.17;2.77;;;15.60;99.90;;;;;;7641396;23;20161;-71
2021/06/11 03:17:52;;;;;;;3.47;2.70;;;15.70;99.90;;;;;;7640254;23;20535;-71
2021/06/11 03:21:16;;;;;;;3.47;3.07;;;15.70;99.90;;;;;;7641197;23;20184;-71
2021/06/11 03:24:25;;;;;;;4.47;3.57;;;15.80;99.90;;;;;;7614002;23;20202;-71
2021/06/11 03:27:38;;;;;;;3.03;2.73;;;15.90;99.90;;;;;;7641704;23;20158;-71
2021/06/11 03:30:49;;;;;;;4.23;3.33;;;15.90;99.90;;;;;;7614293;23;20165;-71
2021/06/11 03:33:58;;;;;;;3.30;2.97;;;16.00;99.90;;;;;;7614930;23;20208;-71
2021/06/11 03:37:05;;;;;;;3.33;2.90;;;16.10;99.90;;;;;;7640260;23;20193;-71
2021/06/11 03:40:11;;;;;;;3.67;2.80;;;16.20;99.90;;;;;;7613886;23;20571;-71
2021/06/11 03:43:15;;;;;;;2.67;2.47;;;16.20;99.90;;;;;;7640420;23;20493;-71
2021/06/11 03:46:19;;;;;;;2.70;2.50;;;16.20;99.90;;;;;;7614080;23;20187;-71
2021/06/11 03:49:24;;;;;;;3.67;2.80;;;16.10;99.90;;;;;;7614765;23;20252;-71
2021/06/11 03:52:29;;;;;;;2.90;2.70;;;16.20;99.90;;;;;;7613438;23;20177;-71
2021/06/11 03:55:41;;;;;;;2.80;2.60;;;16.30;99.90;;;;;;7640773;23;20490;-71
2021/06/11 03:58:45;;;;;;;5.73;2.80;;;16.30;99.90;;;;;;7593951;23;20197;-71
2021/06/11 04:01:50;;;;;;;2.80;2.50;;;16.40;99.90;;;;;;7603215;23;20165;-71
2021/06/11 04:04:53;;;;;;;2.60;2.40;;;16.50;99.90;;;;;;7603574;23;20493;-71
2021/06/11 04:07:57;;;;;;;3.43;2.93;;;16.50;99.90;;;;;;7603143;23;20208;-71
2021/06/11 04:11:04;;;;;;;3.40;2.33;;;16.50;99.90;;;;;;7578055;23;20174;-71
2021/06/11 04:14:09;;;;;;;2.80;2.60;;;16.40;99.90;;;;;;7577568;23;20158;-71
2021/06/11 04:17:15;;;;;;;2.93;2.73;;;16.50;99.90;;;;;;7553863;23;20176;-71
2021/06/11 04:20:27;;;;;;;3.23;2.60;;;16.50;99.90;;;;;;7553411;23;20211;-71
2021/06/11 04:23:36;;;;;;;4.00;2.50;;;16.40;99.90;;;;;;7576868;23;20180;-71
2021/06/11 04:26:40;;;;;;;3.40;2.57;;;16.50;99.90;;;;;;7577263;23;20173;-71
2021/06/11 04:29:46;;;;;;;3.50;2.60;;;16.60;99.90;;;;;;7576773;23;20150;-71
2021/06/11 04:32:48;;;;;;;3.10;2.80;;;16.60;99.90;;;;;;7603289;23;20571;-71
2021/06/11 04:35:51;;;;;;;2.73;2.53;;;16.60;99.90;;;;;;7602803;23;20605;-71
2021/06/11 04:39:00;;;;;;;2.70;2.50;;;16.60;99.90;;;;;;7576609;23;20192;-71
2021/06/11 04:42:03;;;;;;;3.20;2.90;;;16.70;99.90;;;;;;7603118;23;20491;-71
2021/06/11 04:45:07;;;;;;;3.07;2.80;;;16.80;99.90;;;;;;7602570;23;20162;-71
2021/06/11 04:48:10;;;;;;;3.37;2.70;;;16.90;99.90;;;;;;7602945;23;20177;-71
2021/06/11 04:51:13;;;;;;;3.13;2.43;;;17.00;99.90;;;;;;7602478;23;20168;-71
2021/06/11 04:54:15;;;;;;;3.53;2.63;;;17.10;99.90;;;;;;7577239;23;20296;-71
2021/06/11 04:57:18;;;;;;;2.83;2.57;;;17.20;99.90;;;;;;7605639;23;20216;-71
2021/06/11 05:00:21;;;;;;;2.67;2.47;;;17.20;99.90;;;;;;7613520;23;20471;-72
2021/06/11 05:03:23;;;;;;;3.87;2.50;;;17.30;99.90;;;;;;7613903;23;20606;-72
2021/06/11 05:06:26;;;;;;;2.90;2.63;;;17.40;99.90;;;;;;7638772;23;20164;-72
2021/06/11 05:09:29;;;;;;;2.63;2.43;;;17.40;99.90;;;;;;7639686;23;20713;-72
2021/06/11 05:12:31;;;;;;;4.10;2.80;;;17.40;99.90;;;;;;7639408;23;20169;-72
2021/06/11 05:15:34;;;;;;;3.00;2.70;;;17.40;99.90;;;;;;7638948;23;20602;-71
2021/06/11 05:18:36;;;;;;;3.47;2.63;;;17.40;99.90;;;;;;7639297;23;20649;-71
2021/06/11 05:21:38;;;;;;;2.30;2.10;;;17.40;99.90;;;;;;7638786;23;20160;-71
2021/06/11 05:24:41;;;;;;;3.03;2.80;;;17.50;99.90;;;;;;7614186;23;20179;-71
2021/06/11 05:27:44;;;;;;;2.90;2.60;;;17.50;99.90;;;;;;7639219;23;20165;-71
2021/06/11 05:30:46;;;;;;;3.23;2.93;;;17.50;99.90;;;;;;7588634;23;20203;-71
2021/06/11 05:33:48;;;;;;;3.60;2.90;;;17.60;99.90;;;;;;7588814;23;20176;-71
2021/06/11 05:36:50;;;;;;;5.40;2.70;;;17.60;99.90;;;;;;7612580;23;20199;-71
2021/06/11 05:39:52;;;;;;;2.87;2.60;;;17.70;99.90;;;;;;7613390;23;20649;-71
2021/06/11 05:42:55;;;;;;;2.77;2.50;;;17.80;99.90;;;;;;7640297;23;20180;-71
2021/06/11 05:45:57;;;;;;;2.73;2.50;;;17.80;99.90;;;;;;7641612;23;20219;-71
2021/06/11 05:48:59;;;;;;;3.23;2.93;;;17.80;99.90;;;;;;7641691;23;20271;-71
2021/06/11 05:52:02;;;;;;;3.07;2.77;;;17.90;99.90;;;;;;7641247;23;20510;-71
2021/06/11 05:55:05;;;;;;;3.33;3.13;;;17.90;99.90;;;;;;7615560;23;20179;-71
2021/06/11 05:58:11;;;;;;;3.03;2.80;;;18.00;99.90;;;;;;7577791;23;20208;-71
2021/06/11 06:01:13;;;;;;;4.07;2.80;;;18.10;99.90;;;;;;7603476;23;20184;-71
2021/06/11 06:04:16;;;;;;;3.03;2.73;;;18.20;99.90;;;;;;7604914;23;20166;-71
2021/06/11 06:07:18;;;;;;;3.13;2.80;;;18.20;99.90;;;;;;7578417;23;20627;-71
2021/06/11 06:10:20;;;;;;;2.73;2.53;;;18.30;99.90;;;;;;7605003;23;20246;-71
2021/06/11 06:13:23;;;;;;;3.70;2.63;;;18.30;99.90;;;;;;7554787;23;20173;-71
2021/06/11 06:16:25;;;;;;;3.47;2.80;;;18.50;99.90;;;;;;7603040;23;20533;-71
2021/06/11 06:19:28;;;;;;;3.07;2.83;;;18.50;99.90;;;;;;7604861;23;20185;-71
2021/06/11 06:22:30;;;;;;;3.10;2.83;;;18.60;99.90;;;;;;7578378;23;20658;-71
2021/06/11 06:25:32;;;;;;;2.80;2.60;;;18.60;99.90;;;;;;7604888;23;20165;-71
2021/06/11 06:28:34;;;;;;;2.53;2.33;;;18.70;99.90;;;;;;7603931;23;20172;-71
2021/06/11 06:31:37;;;;;;;3.43;2.80;;;18.80;99.90;;;;;;7604935;23;20165;-71
2021/06/11 06:34:39;;;;;;;2.80;2.60;;;19.00;99.90;;;;;;7578259;23;20170;-71
2021/06/11 06:37:41;;;;;;;5.00;2.97;;;19.10;99.90;;;;;;7603042;23;20263;-71
2021/06/11 06:40:46;;;;;;;3.00;2.70;;;19.20;99.90;;;;;;7602861;23;20272;-71
2021/06/11 06:43:49;;;;;;;3.20;2.90;;;19.30;99.90;;;;;;7578137;23;20549;-71
2021/06/11 06:46:51;;;;;;;4.07;2.73;;;19.50;99.90;;;;;;7604320;23;20236;-71
2021/06/11 06:49:54;;;;;;;3.27;2.40;;;19.60;99.90;;;;;;7578006;23;20170;-71
2021/06/11 06:53:03;;;;;;;2.80;2.60;;;19.80;99.90;;;;;;7578666;23;20177;-71
2021/06/11 06:56:06;;;;;;;2.50;2.30;;;19.90;99.90;;;;;;7603393;23;20196;-71
2021/06/11 06:59:09;;;;;;;4.00;2.97;;;19.90;99.90;;;;;;7576962;23;20276;-71
2021/06/11 07:02:13;;;;;;;2.87;2.67;;;20.00;99.90;;;;;;7602242;23;20228;-71
2021/06/11 07:05:16;;;;;;;2.90;2.70;;;20.10;99.90;;;;;;7552579;23;20173;-71
2021/06/11 07:08:19;;;;;;;3.30;3.00;;;20.20;99.90;;;;;;7576856;23;20169;-71
2021/06/11 07:11:23;;;;;;;2.70;2.50;;;20.50;99.90;;;;;;7576539;23;20197;-71
2021/06/11 07:14:27;;;;;;;2.20;2.03;;;20.70;99.70;;;;;;7552291;23;20177;-71
2021/06/11 07:17:30;;;;;;;2.53;2.33;;;20.90;99.20;;;;;;7552452;23;20184;-71
2021/06/11 07:20:33;;;;;;;2.90;2.60;;;21.10;98.70;;;;;;7576070;23;20197;-71
2021/06/11 07:23:36;;;;;;;3.03;2.70;;;21.50;98.00;;;;;;7552730;23;20186;-71
2021/06/11 07:26:39;;;;;;;3.57;3.17;;;21.90;97.20;;;;;;7601752;23;20689;-71
2021/06/11 07:29:44;;;;;;;3.80;2.80;;;22.10;95.50;;;;;;7576447;23;20177;-71
2021/06/11 07:32:47;;;;;;;3.33;3.03;;;22.40;95.20;;;;;;7602533;23;20157;-71
2021/06/11 07:35:50;;;;;;;3.50;3.20;;;22.70;94.60;;;;;;7602185;23;20169;-71
2021/06/11 07:38:53;;;;;;;3.17;2.97;;;22.70;93.50;;;;;;7576840;23;20548;-71
2021/06/11 07:41:56;;;;;;;3.13;2.93;;;22.70;93.00;;;;;;7577097;23;20224;-71
2021/06/11 07:44:59;;;;;;;3.67;3.37;;;22.80;92.90;;;;;;7602361;23;20167;-71
2021/06/11 07:48:01;;;;;;;3.17;2.90;;;23.10;93.10;;;;;;7603226;23;20162;-71
2021/06/11 07:51:05;;;;;;;3.53;3.23;;;23.40;92.60;;;;;;7602650;23;20176;-71
2021/06/11 07:54:09;;;;;;;4.30;3.53;;;23.70;91.10;;;;;;7603330;23;20169;-71
2021/06/11 07:57:12;;;;;;;5.47;3.63;;;24.00;90.10;;;;;;7542922;23;213856;-71
2021/06/11 08:00:15;;;;;;;4.23;3.83;;;24.20;89.60;;;;;;7617544;23;20235;-71
2021/06/11 08:03:26;;;;;;;4.23;3.03;;;24.00;87.80;;;;;;7614429;23;20172;-71
2021/06/11 08:06:30;;;;;;;4.20;3.43;;;24.00;89.60;;;;;;7615102;23;20251;-71
2021/06/11 08:09:35;;;;;;;3.70;3.40;;;24.30;87.60;;;;;;7616582;23;20149;-71
2021/06/11 08:12:37;;;;;;;3.40;3.10;;;24.60;86.40;;;;;;7641021;23;20179;-71
2021/06/11 08:15:40;;;;;;;3.77;3.37;;;24.90;84.20;;;;;;7641104;23;20169;-71
2021/06/11 08:18:42;;;;;;;3.80;3.40;;;25.20;82.00;;;;;;7640782;23;20175;-71
2021/06/11 08:21:46;;;;;;;4.50;3.67;;;25.40;80.30;;;;;;7590830;23;20216;-71
2021/06/11 08:24:49;;;;;;;3.40;3.10;;;25.50;78.30;;;;;;7640787;23;20244;-71
2021/06/11 08:27:51;;;;;;;4.43;3.30;;;25.50;79.20;;;;;;7590221;23;20259;-71
2021/06/11 08:30:54;;;;;;;3.37;3.07;;;25.60;76.60;;;;;;7640585;23;20494;-71
2021/06/11 08:33:56;;;;;;;3.17;2.87;;;25.90;77.30;;;;;;7614297;23;20173;-71
2021/06/11 08:36:59;;;;;;;3.40;3.10;;;26.20;76.70;;;;;;7614537;23;20701;-71
2021/06/11 08:40:02;;;;;;;3.08;2.88;;;26.60;73.30;;;;;;7640566;23;20255;-71
2021/06/11 08:43:06;;;;;;;3.42;3.15;;;26.90;71.40;;;;;;7614808;23;20165;-71
2021/06/11 08:46:09;;;;;;;3.22;2.92;;;27.30;71.50;;;;;;7640498;23;20232;-71
2021/06/11 08:49:12;;;;;;;3.20;3.00;;;27.50;68.90;;;;;;7640313;23;20168;-71
2021/06/11 08:52:14;;;;;;;4.30;3.90;;;27.70;66.00;;;;;;7641298;23;20164;-71
2021/06/11 08:55:16;;;;;;;3.80;3.40;;;27.60;65.10;;;;;;7614461;23;20541;-71
2021/06/11 08:58:19;;;;;;;3.33;3.00;;;27.50;65.60;;;;;;7640467;23;20256;-71
2021/06/11 09:01:21;;;;;;;5.78;3.95;;;27.70;64.60;;;;;;7614467;23;20203;-71
2021/06/11 09:04:43;;;;;;;3.42;3.17;;;27.70;60.70;;;;;;7640046;23;20161;-71
2021/06/11 09:07:46;;;;;;;3.72;3.42;;;27.60;61.50;;;;;;7640482;23;20176;-71
2021/06/11 09:10:51;;;;;;;2.90;2.70;;;28.00;62.50;;;;;;7637592;23;20529;-71
2021/06/11 09:14:05;;;;;;;3.47;3.13;;;28.50;60.10;;;;;;7638044;23;20248;-71
2021/06/11 09:17:07;;;;;;;3.55;3.25;;;28.90;59.50;;;;;;7589136;23;20523;-71
2021/06/11 09:20:14;;;;;;;3.38;3.08;;;29.20;58.60;;;;;;7638945;23;20259;-71
2021/06/11 09:23:18;;;;;;;3.42;3.13;;;29.40;58.90;;;;;;7639795;23;20156;-71
2021/06/11 09:26:20;;;;;;;3.20;2.97;;;29.30;57.20;;;;;;7639893;23;20480;-71
2021/06/11 09:29:43;;;;;;;6.10;3.55;;;29.30;56.50;;;;;;7588756;23;20665;-71
2021/06/11 09:32:58;;;;;;;3.67;3.38;;;29.30;56.20;;;;;;7636925;23;20225;-71
2021/06/11 09:36:02;;;;;;;3.55;3.25;;;28.90;56.80;;;;;;7640253;23;20185;-71
2021/06/11 09:39:05;;;;;;;3.35;3.10;;;28.90;56.90;;;;;;7639468;23;20172;-71
2021/06/11 09:42:08;;;;;;;3.70;3.25;;;29.20;56.70;;;;;;7640453;23;20185;-71
2021/06/11 09:45:16;;;;;;;3.25;2.95;;;29.50;56.00;;;;;;7614832;23;20684;-71
2021/06/11 09:48:28;;;;;;;3.47;3.22;;;29.90;56.10;;;;;;7640188;23;20157;-71
2021/06/11 09:51:30;;;;;;;2.92;2.72;;;30.10;54.20;;;;;;7614188;23;20196;-71
2021/06/11 09:54:33;;;;;;;3.00;2.80;;;30.20;53.80;;;;;;7614318;23;20184;-71
2021/06/11 09:57:36;;;;;;;3.20;3.00;;;30.30;52.10;;;;;;7640911;23;20205;-71
2021/06/11 10:00:53;;;;;;;5.43;3.30;;;30.40;52.40;;;;;;7640495;23;20193;-71
2021/06/11 10:03:57;;;;;;;3.90;3.30;;;30.20;52.00;;;;;;7612325;23;20224;-71
2021/06/11 10:06:59;;;;;;;3.50;3.20;;;29.90;53.20;;;;;;7615078;23;20260;-71
2021/06/11 10:10:03;;;;;;;2.95;2.75;;;29.80;52.90;;;;;;7638932;23;20527;-72
2021/06/11 10:14:29;;;;;;;4.00;3.00;;;30.10;53.10;;;;;;6335530;27;21015;-71
2021/06/11 10:17:32;;;;;;;3.00;2.80;;;30.80;52.40;;;;;;6320893;28;20191;-71
2021/06/11 10:20:35;;;;;;;3.10;2.90;;;31.10;51.40;;;;;;6291635;28;20253;-71
2021/06/11 10:23:38;;;;;;;2.92;2.70;;;31.40;50.50;;;;;;6291525;28;20191;-72
2021/06/11 10:26:42;;;;;;;3.00;2.80;;;31.60;49.40;;;;;;6290815;28;20661;-72
2021/06/11 10:29:44;;;;;;;3.45;2.75;;;31.90;49.00;;;;;;6280516;28;20182;-69
